Time;durP1;ratioP1;P1;durP2;ratioP2;P2;SDS_P1;SDS_P2;PMS_P1;PMS_P2;Temp;Humidity;BMP_temperature;BMP_pressure;BME280_temperature;BME280_humidity;BME280_pressure;Samples;Min_cycle;Max_cycle;Signal;HPM_P1;HPM_P2
2023/06/10 00:02:44;;;;;;;13.83;9.63;;;;;;;;;;10355347;28;20038;-78
2023/06/10 00:07:48;;;;;;;14.17;9.60;;;;;;;;;;10351846;28;20113;-80
2023/06/10 00:12:49;;;;;;;17.35;10.18;;;;;;;;;;10354618;28;20053;-78
2023/06/10 00:17:54;;;;;;;20.80;10.55;;;;;;;;;;10354688;28;20029;-74
2023/06/10 00:22:56;;;;;;;20.70;10.77;;;;;;;;;;10366303;28;20715;-77
2023/06/10 00:28:00;;;;;;;14.57;10.43;;;;;;;;;;10359911;28;20112;-82
2023/06/10 00:33:01;;;;;;;17.05;10.93;;;;;;;;;;10363649;28;20032;-77
2023/06/10 00:38:01;;;;;;;17.90;10.73;;;;;;;;;;10361832;28;20154;-76
2023/06/10 00:43:01;;;;;;;16.63;11.02;;;;;;;;;;10366241;28;20030;-73
2023/06/10 00:48:02;;;;;;;18.00;11.05;;;;;;;;;;10376153;28;20022;-81
2023/06/10 00:53:02;;;;;;;16.27;11.48;;;;;;;;;;10359679;28;20111;-76
2023/06/10 00:58:03;;;;;;;20.77;11.55;;;;;;;;;;10387605;23;20061;-78
2023/06/10 01:03:08;;;;;;;24.38;14.27;;;;;;;;;;10395991;28;20600;-80
2023/06/10 01:08:11;;;;;;;22.83;13.88;;;;;;;;;;10405388;28;20112;-83
2023/06/10 01:13:13;;;;;;;23.95;15.27;;;;;;;;;;10375059;28;20064;-81
2023/06/10 01:18:14;;;;;;;24.42;14.85;;;;;;;;;;10363454;28;20030;-82
2023/06/10 01:23:16;;;;;;;22.60;13.38;;;;;;;;;;10362147;28;20370;-85
2023/06/10 01:28:20;;;;;;;23.42;14.90;;;;;;;;;;10362293;28;20081;-77
2023/06/10 01:33:25;;;;;;;32.00;17.42;;;;;;;;;;10341987;28;20033;-78
2023/06/10 01:38:26;;;;;;;25.30;14.55;;;;;;;;;;10361898;28;20417;-82
2023/06/10 01:43:27;;;;;;;24.92;15.35;;;;;;;;;;10359002;28;20034;-76
2023/06/10 01:48:31;;;;;;;24.55;14.52;;;;;;;;;;10360783;28;20034;-76
2023/06/10 01:53:33;;;;;;;22.95;15.90;;;;;;;;;;10361275;28;20033;-80
2023/06/10 01:58:33;;;;;;;25.35;16.33;;;;;;;;;;10374067;28;20080;-78
2023/06/10 02:03:33;;;;;;;22.88;16.80;;;;;;;;;;10372065;28;20477;-78
2023/06/10 02:08:33;;;;;;;25.17;15.50;;;;;;;;;;10364498;28;20038;-72
2023/06/10 02:13:34;;;;;;;27.15;14.50;;;;;;;;;;10384416;28;20105;-74
2023/06/10 02:18:55;;;;;;;26.45;14.40;;;;;;;;;;10379196;28;20018;-73
2023/06/10 02:23:55;;;;;;;16.73;12.88;;;;;;;;;;10385479;28;20574;-76
2023/06/10 02:28:59;;;;;;;18.98;13.40;;;;;;;;;;10363492;28;20046;-78
2023/06/10 02:33:59;;;;;;;17.40;12.32;;;;;;;;;;10345902;28;20050;-73
2023/06/10 02:38:59;;;;;;;24.33;13.15;;;;;;;;;;10377641;28;20386;-80
2023/06/10 02:43:59;;;;;;;20.13;12.13;;;;;;;;;;10350868;28;20029;-78
2023/06/10 02:49:03;;;;;;;17.90;11.45;;;;;;;;;;10376768;28;20277;-74
2023/06/10 02:54:04;;;;;;;25.77;12.93;;;;;;;;;;10384760;28;20437;-73
2023/06/10 02:59:07;;;;;;;16.73;10.88;;;;;;;;;;10385861;28;20057;-77
2023/06/10 03:04:07;;;;;;;16.58;11.18;;;;;;;;;;10377407;28;20068;-76
2023/06/10 03:09:08;;;;;;;18.30;12.30;;;;;;;;;;10377653;28;20026;-79
2023/06/10 03:14:09;;;;;;;16.50;11.37;;;;;;;;;;10378001;28;20033;-84
2023/06/10 03:19:10;;;;;;;22.05;13.38;;;;;;;;;;10375625;28;20032;-81
2023/06/10 03:24:17;;;;;;;17.65;11.07;;;;;;;;;;10367957;28;20046;-77
2023/06/10 03:29:17;;;;;;;18.58;11.38;;;;;;;;;;10366656;28;20030;-81
2023/06/10 03:34:17;;;;;;;19.07;10.93;;;;;;;;;;10367857;28;20026;-78
2023/06/10 03:39:18;;;;;;;21.77;13.27;;;;;;;;;;10365981;28;20026;-82
2023/06/10 03:44:18;;;;;;;20.30;13.27;;;;;;;;;;10364446;28;20105;-80
2023/06/10 03:49:18;;;;;;;19.05;12.55;;;;;;;;;;10368611;28;20028;-80
2023/06/10 03:54:20;;;;;;;24.80;13.43;;;;;;;;;;10363865;28;20450;-81
2023/06/10 03:59:22;;;;;;;33.53;15.13;;;;;;;;;;10364774;28;20085;-79
2023/06/10 04:04:23;;;;;;;23.63;14.80;;;;;;;;;;10364562;28;20026;-83
2023/06/10 04:09:23;;;;;;;19.13;13.68;;;;;;;;;;10363773;28;20046;-78
2023/06/10 04:14:24;;;;;;;23.70;13.88;;;;;;;;;;10362841;28;20037;-80
2023/06/10 04:19:24;;;;;;;28.48;15.35;;;;;;;;;;10355388;28;20117;-83
2023/06/10 04:24:26;;;;;;;22.88;16.33;;;;;;;;;;10365691;28;20033;-82
2023/06/10 04:29:26;;;;;;;19.42;13.32;;;;;;;;;;10362766;28;20484;-82
2023/06/10 04:34:27;;;;;;;26.98;15.40;;;;;;;;;;10363737;28;20056;-77
2023/06/10 04:39:28;;;;;;;25.35;14.70;;;;;;;;;;10361334;28;20026;-87
2023/06/10 04:44:28;;;;;;;17.85;12.68;;;;;;;;;;10345136;28;20030;-76
2023/06/10 04:49:29;;;;;;;20.10;12.40;;;;;;;;;;10366709;28;20065;-75
2023/06/10 04:54:30;;;;;;;21.83;13.05;;;;;;;;;;10369436;28;20130;-75
2023/06/10 04:59:38;;;;;;;23.47;15.03;;;;;;;;;;10372519;28;20144;-78
2023/06/10 05:04:39;;;;;;;22.80;13.75;;;;;;;;;;10372659;28;20053;-78
2023/06/10 05:09:39;;;;;;;25.27;15.33;;;;;;;;;;10375050;28;20053;-74
2023/06/10 05:14:41;;;;;;;25.48;13.23;;;;;;;;;;10366376;28;20044;-78
2023/06/10 05:19:50;;;;;;;19.70;12.85;;;;;;;;;;10363285;28;20026;-81
2023/06/10 05:24:53;;;;;;;21.40;10.90;;;;;;;;;;10361862;28;20081;-82
2023/06/10 05:29:54;;;;;;;21.35;13.25;;;;;;;;;;10361034;28;20480;-78
2023/06/10 05:35:08;;;;;;;21.48;13.23;;;;;;;;;;10354682;28;20402;-78
2023/06/10 05:40:13;;;;;;;16.75;11.15;;;;;;;;;;10357423;28;20177;-84
2023/06/10 05:45:14;;;;;;;19.58;11.68;;;;;;;;;;10340527;28;20030;-79
2023/06/10 05:50:16;;;;;;;17.57;12.53;;;;;;;;;;10360875;28;20017;-80
2023/06/10 05:55:17;;;;;;;21.88;13.43;;;;;;;;;;10362526;28;20707;-80
2023/06/10 06:00:17;;;;;;;27.58;14.40;;;;;;;;;;10361174;28;20050;-79
2023/06/10 06:05:17;;;;;;;25.15;13.55;;;;;;;;;;10366661;28;20521;-81
2023/06/10 06:10:18;;;;;;;27.83;15.10;;;;;;;;;;10359925;28;20064;-79
2023/06/10 06:15:18;;;;;;;26.30;15.52;;;;;;;;;;10356776;28;20130;-79
2023/06/10 06:20:23;;;;;;;22.48;16.17;;;;;;;;;;10371777;28;20021;-79
2023/06/10 06:25:23;;;;;;;26.55;16.65;;;;;;;;;;10365681;28;20495;-82
2023/06/10 06:30:24;;;;;;;28.65;15.93;;;;;;;;;;10354158;28;20031;-76
2023/06/10 06:35:24;;;;;;;28.53;16.07;;;;;;;;;;10322311;28;20098;-77
2023/06/10 06:40:24;;;;;;;28.23;15.57;;;;;;;;;;10356529;28;20013;-83
2023/06/10 06:45:25;;;;;;;30.15;17.08;;;;;;;;;;10358884;28;20021;-80
2023/06/10 06:50:25;;;;;;;22.75;15.73;;;;;;;;;;10358782;28;20486;-81
2023/06/10 06:55:25;;;;;;;29.52;15.20;;;;;;;;;;10341854;28;20056;-81
2023/06/10 07:00:26;;;;;;;29.70;15.02;;;;;;;;;;10366172;28;20081;-81
2023/06/10 07:05:27;;;;;;;23.55;11.32;;;;;;;;;;10364701;28;20060;-84
2023/06/10 07:10:28;;;;;;;16.57;10.20;;;;;;;;;;10366085;28;20076;-87
2023/06/10 07:15:28;;;;;;;20.10;9.00;;;;;;;;;;10363350;28;20132;-77
2023/06/10 07:20:28;;;;;;;15.48;8.63;;;;;;;;;;10365542;28;20021;-77
2023/06/10 07:25:29;;;;;;;20.63;8.00;;;;;;;;;;10365108;28;20065;-79
2023/06/10 07:30:29;;;;;;;11.65;7.25;;;;;;;;;;10365470;28;20160;-78
2023/06/10 07:35:29;;;;;;;9.50;5.20;;;;;;;;;;10364488;28;20486;-86
2023/06/10 07:40:31;;;;;;;9.37;4.70;;;;;;;;;;10363746;28;20026;-86
2023/06/10 07:45:33;;;;;;;13.02;4.43;;;;;;;;;;10373687;28;20045;-81
2023/06/10 07:50:33;;;;;;;13.50;5.25;;;;;;;;;;10350890;28;20034;-76
2023/06/10 07:55:33;;;;;;;7.77;4.73;;;;;;;;;;10364138;28;20458;-80
2023/06/10 08:00:33;;;;;;;15.18;5.65;;;;;;;;;;10367511;28;20069;-78
2023/06/10 08:05:34;;;;;;;9.00;5.25;;;;;;;;;;10365666;28;20087;-78
2023/06/10 08:10:34;;;;;;;6.43;4.15;;;;;;;;;;10365518;28;20033;-77
2023/06/10 08:15:34;;;;;;;9.97;4.67;;;;;;;;;;10364368;28;20033;-77
2023/06/10 08:20:35;;;;;;;9.57;3.27;;;;;;;;;;10361006;28;20026;-82
2023/06/10 08:25:36;;;;;;;9.70;4.80;;;;;;;;;;10361753;28;20018;-80
2023/06/10 08:30:37;;;;;;;4.60;2.83;;;;;;;;;;10362993;28;20022;-80
2023/06/10 08:35:37;;;;;;;5.07;2.47;;;;;;;;;;10345563;28;20382;-81
2023/06/10 08:40:37;;;;;;;4.63;2.05;;;;;;;;;;10361087;28;20412;-77
2023/06/10 08:45:37;;;;;;;3.60;2.40;;;;;;;;;;10360847;28;20025;-76
2023/06/10 08:50:38;;;;;;;4.32;2.25;;;;;;;;;;10361336;28;20049;-77
2023/06/10 08:55:41;;;;;;;2.87;2.07;;;;;;;;;;10363582;28;20029;-81
2023/06/10 09:00:42;;;;;;;6.63;2.22;;;;;;;;;;10345725;28;20637;-85
2023/06/10 09:05:43;;;;;;;5.07;2.33;;;;;;;;;;10367084;28;20026;-76
2023/06/10 09:10:43;;;;;;;3.83;2.08;;;;;;;;;;10375608;28;20026;-79
2023/06/10 09:15:44;;;;;;;2.00;1.50;;;;;;;;;;10361616;28;20022;-76
2023/06/10 09:20:44;;;;;;;3.35;1.58;;;;;;;;;;10360965;28;20042;-82
2023/06/10 09:25:45;;;;;;;2.55;1.60;;;;;;;;;;10361099;28;20386;-80
2023/06/10 09:30:46;;;;;;;5.70;2.15;;;;;;;;;;10359931;28;20030;-76
2023/06/10 09:35:50;;;;;;;3.10;1.20;;;;;;;;;;10361096;28;20029;-82
2023/06/10 09:40:55;;;;;;;1.73;1.33;;;;;;;;;;10360327;28;20025;-83
2023/06/10 09:45:57;;;;;;;4.47;1.20;;;;;;;;;;10344691;28;20551;-83
2023/06/10 09:50:57;;;;;;;3.58;1.48;;;;;;;;;;10359275;28;20033;-76
2023/06/10 09:55:57;;;;;;;4.75;1.60;;;;;;;;;;10360099;28;20040;-81
2023/06/10 10:00:57;;;;;;;2.43;1.60;;;;;;;;;;10359076;28;20061;-81
2023/06/10 10:05:59;;;;;;;3.78;1.60;;;;;;;;;;10346219;28;20038;-77
2023/06/10 10:10:59;;;;;;;5.30;2.05;;;;;;;;;;10351133;28;20037;-82
2023/06/10 10:16:11;;;;;;;4.25;2.03;;;;;;;;;;10360221;28;20025;-82
2023/06/10 10:21:22;;;;;;;4.00;1.63;;;;;;;;;;10361966;28;20429;-82
2023/06/10 10:26:25;;;;;;;3.92;1.70;;;;;;;;;;10358915;28;20040;-77
2023/06/10 10:31:27;;;;;;;2.80;1.95;;;;;;;;;;10341964;28;20026;-84
2023/06/10 10:36:28;;;;;;;3.33;2.20;;;;;;;;;;10358520;28;20017;-81
2023/06/10 10:41:30;;;;;;;2.10;1.40;;;;;;;;;;10358865;28;20064;-78
2023/06/10 10:46:30;;;;;;;2.38;1.50;;;;;;;;;;10365459;28;20030;-77
2023/06/10 10:51:33;;;;;;;5.80;1.90;;;;;;;;;;10367510;28;20096;-83
2023/06/10 10:56:34;;;;;;;3.13;1.63;;;;;;;;;;10367429;28;20030;-79
2023/06/10 11:01:46;;;;;;;4.03;1.90;;;;;;;;;;10367560;28;20057;-76
2023/06/10 11:06:53;;;;;;;10.55;1.80;;;;;;;;;;10365320;28;20022;-81
2023/06/10 11:11:56;;;;;;;4.90;2.55;;;;;;;;;;10365478;28;20018;-80
2023/06/10 11:16:57;;;;;;;4.68;2.20;;;;;;;;;;10364421;28;20084;-81
2023/06/10 11:22:01;;;;;;;4.15;2.50;;;;;;;;;;10364605;28;20033;-81
2023/06/10 11:27:17;;;;;;;6.00;2.58;;;;;;;;;;10360046;28;20025;-76
2023/06/10 11:32:17;;;;;;;7.90;3.27;;;;;;;;;;10364291;28;20088;-79
2023/06/10 11:37:18;;;;;;;5.80;3.37;;;;;;;;;;10364913;28;20068;-83
2023/06/10 11:42:18;;;;;;;6.17;2.83;;;;;;;;;;10364121;28;20022;-78
2023/06/10 11:47:19;;;;;;;12.07;4.40;;;;;;;;;;10365765;28;20457;-76
2023/06/10 11:52:25;;;;;;;5.05;2.60;;;;;;;;;;10364370;28;20021;-80
2023/06/10 11:57:25;;;;;;;4.30;2.63;;;;;;;;;;10374911;28;20058;-79
2023/06/10 12:02:26;;;;;;;3.65;2.70;;;;;;;;;;10366010;28;20084;-76
2023/06/10 12:07:26;;;;;;;3.80;2.67;;;;;;;;;;10364247;28;20049;-77
2023/06/10 12:12:26;;;;;;;3.63;2.07;;;;;;;;;;10373296;28;20026;-83
2023/06/10 12:17:30;;;;;;;4.70;2.67;;;;;;;;;;10361187;28;20014;-76
2023/06/10 12:22:41;;;;;;;3.88;2.53;;;;;;;;;;10369111;28;20788;-85
2023/06/10 12:27:50;;;;;;;4.50;2.45;;;;;;;;;;10323656;28;20037;-80
2023/06/10 12:32:52;;;;;;;3.30;2.25;;;;;;;;;;10356184;28;20026;-80
2023/06/10 12:38:00;;;;;;;4.80;2.42;;;;;;;;;;10362773;28;20544;-79
2023/06/10 12:43:02;;;;;;;3.80;2.30;;;;;;;;;;10369429;28;20022;-79
2023/06/10 12:48:17;;;;;;;4.28;2.15;;;;;;;;;;10361988;28;20025;-82
2023/06/10 12:53:17;;;;;;;6.10;2.72;;;;;;;;;;10363057;28;20033;-79
2023/06/10 12:58:21;;;;;;;6.95;2.80;;;;;;;;;;10366474;28;20050;-78
2023/06/10 13:03:22;;;;;;;3.78;1.98;;;;;;;;;;10364654;28;20053;-82
2023/06/10 13:08:22;;;;;;;3.88;1.98;;;;;;;;;;10360423;28;20120;-76
2023/06/10 13:13:22;;;;;;;6.13;2.85;;;;;;;;;;10360196;28;20060;-80
2023/06/10 13:18:22;;;;;;;6.55;2.97;;;;;;;;;;10359565;28;20026;-80
2023/06/10 13:23:23;;;;;;;3.45;2.47;;;;;;;;;;10360363;28;20070;-81
2023/06/10 13:28:23;;;;;;;4.63;2.70;;;;;;;;;;10361203;28;20041;-79
2023/06/10 13:33:25;;;;;;;4.75;2.03;;;;;;;;;;10359018;28;20112;-80
2023/06/10 13:38:27;;;;;;;5.85;2.67;;;;;;;;;;10359295;28;20033;-80
2023/06/10 13:43:28;;;;;;;5.80;3.67;;;;;;;;;;10361549;28;20148;-81
2023/06/10 13:48:31;;;;;;;10.60;4.30;;;;;;;;;;10374071;28;20061;-80
2023/06/10 13:53:31;;;;;;;9.50;4.03;;;;;;;;;;10359639;28;20038;-80
2023/06/10 13:58:33;;;;;;;8.45;5.00;;;;;;;;;;10358737;28;20572;-79
2023/06/10 14:03:36;;;;;;;11.13;4.32;;;;;;;;;;10358059;28;20081;-81
2023/06/10 14:08:36;;;;;;;12.18;5.05;;;;;;;;;;10359503;28;20018;-82
2023/06/10 14:13:38;;;;;;;5.13;3.58;;;;;;;;;;10360051;28;20030;-76
2023/06/10 14:18:38;;;;;;;6.10;3.40;;;;;;;;;;10357438;28;20101;-83
2023/06/10 14:23:39;;;;;;;10.68;4.60;;;;;;;;;;10322324;28;20527;-77
2023/06/10 14:28:39;;;;;;;8.73;3.70;;;;;;;;;;10357630;28;20516;-82
2023/06/10 14:33:42;;;;;;;6.00;3.40;;;;;;;;;;10357763;28;20489;-82
2023/06/10 14:38:42;;;;;;;6.88;3.30;;;;;;;;;;10359694;28;20106;-84
2023/06/10 14:43:42;;;;;;;8.43;3.40;;;;;;;;;;10360253;28;20386;-75
2023/06/10 14:48:42;;;;;;;7.30;3.58;;;;;;;;;;10357909;28;20053;-76
2023/06/10 14:53:43;;;;;;;5.20;2.97;;;;;;;;;;10357952;28;20066;-79
2023/06/10 14:58:44;;;;;;;4.93;3.25;;;;;;;;;;10359685;28;20046;-81
2023/06/10 15:03:44;;;;;;;6.88;3.67;;;;;;;;;;10356871;28;20029;-82
2023/06/10 15:08:45;;;;;;;4.95;3.50;;;;;;;;;;10359225;28;20026;-79
2023/06/10 15:13:46;;;;;;;8.57;3.67;;;;;;;;;;10358753;28;20022;-80
2023/06/10 15:18:46;;;;;;;4.40;3.25;;;;;;;;;;10357190;28;20026;-76
2023/06/10 15:23:47;;;;;;;4.93;3.10;;;;;;;;;;10359554;28;20034;-79
2023/06/10 15:28:49;;;;;;;6.75;4.13;;;;;;;;;;10362513;28;20026;-82
2023/06/10 15:33:49;;;;;;;10.15;3.88;;;;;;;;;;10365924;28;20026;-82
2023/06/10 15:38:50;;;;;;;11.77;4.57;;;;;;;;;;10366395;28;20030;-78
2023/06/10 15:43:50;;;;;;;10.40;4.97;;;;;;;;;;10363156;28;20025;-75
2023/06/10 15:48:50;;;;;;;10.32;4.63;;;;;;;;;;10362504;28;20022;-77
2023/06/10 15:53:51;;;;;;;7.77;4.07;;;;;;;;;;10364560;28;20029;-82
2023/06/10 15:58:51;;;;;;;7.68;4.95;;;;;;;;;;10364532;28;20053;-76
2023/06/10 16:03:52;;;;;;;8.37;5.13;;;;;;;;;;10364986;28;20030;-78
2023/06/10 16:08:52;;;;;;;7.07;4.25;;;;;;;;;;10362791;28;20268;-77
2023/06/10 16:13:52;;;;;;;9.55;4.40;;;;;;;;;;10363093;28;20148;-77
2023/06/10 16:18:53;;;;;;;6.13;4.20;;;;;;;;;;10362972;28;20051;-76
2023/06/10 16:23:53;;;;;;;6.18;3.75;;;;;;;;;;10361757;28;20026;-77
2023/06/10 16:28:53;;;;;;;7.80;4.00;;;;;;;;;;10361981;28;20034;-81
2023/06/10 16:33:53;;;;;;;5.97;3.42;;;;;;;;;;10360979;28;20037;-77
2023/06/10 16:39:00;;;;;;;7.65;3.90;;;;;;;;;;10343711;28;20022;-75
2023/06/10 16:44:00;;;;;;;9.23;3.60;;;;;;;;;;10362107;28;20067;-81
2023/06/10 16:49:00;;;;;;;8.05;3.50;;;;;;;;;;10359966;28;20403;-78
2023/06/10 16:54:00;;;;;;;5.90;3.40;;;;;;;;;;10362547;28;20018;-81
2023/06/10 16:59:01;;;;;;;8.00;3.88;;;;;;;;;;10360530;28;20083;-80
2023/06/10 17:04:02;;;;;;;5.95;3.42;;;;;;;;;;10360263;28;20022;-77
2023/06/10 17:09:03;;;;;;;5.38;3.20;;;;;;;;;;10359524;28;20029;-80
2023/06/10 17:14:03;;;;;;;7.22;4.10;;;;;;;;;;10361289;28;20029;-80
2023/06/10 17:19:04;;;;;;;6.77;3.77;;;;;;;;;;10360739;28;20025;-80
2023/06/10 17:24:04;;;;;;;9.27;4.20;;;;;;;;;;10359072;28;20072;-77
2023/06/10 17:29:05;;;;;;;9.60;4.90;;;;;;;;;;10365253;28;20661;-80
2023/06/10 17:34:05;;;;;;;5.77;3.63;;;;;;;;;;10371595;28;20502;-77
2023/06/10 17:39:06;;;;;;;6.03;3.90;;;;;;;;;;10359966;28;20380;-76
2023/06/10 17:44:06;;;;;;;7.75;4.07;;;;;;;;;;10360306;28;20025;-84
2023/06/10 17:49:09;;;;;;;4.82;3.45;;;;;;;;;;10358947;28;20022;-80
2023/06/10 17:54:09;;;;;;;6.72;3.15;;;;;;;;;;10359205;28;20423;-80
2023/06/10 17:59:09;;;;;;;5.67;3.53;;;;;;;;;;10359345;28;20120;-79
2023/06/10 18:04:11;;;;;;;7.07;4.07;;;;;;;;;;10359083;28;20113;-85
2023/06/10 18:09:11;;;;;;;13.88;4.13;;;;;;;;;;10357892;28;20522;-77
2023/06/10 18:14:11;;;;;;;5.67;3.33;;;;;;;;;;10357275;28;20061;-78
2023/06/10 18:19:11;;;;;;;8.73;4.18;;;;;;;;;;10358157;28;20022;-76
2023/06/10 18:24:12;;;;;;;6.13;3.83;;;;;;;;;;10358773;28;20359;-76
2023/06/10 18:29:12;;;;;;;7.47;4.30;;;;;;;;;;10359610;28;20033;-83
2023/06/10 18:34:12;;;;;;;6.97;3.85;;;;;;;;;;10356534;28;20018;-82
2023/06/10 18:39:13;;;;;;;8.10;3.75;;;;;;;;;;10349162;28;20032;-78
2023/06/10 18:44:13;;;;;;;6.25;3.75;;;;;;;;;;10351115;28;20017;-81
2023/06/10 18:49:13;;;;;;;7.50;4.43;;;;;;;;;;10346357;28;20032;-77
2023/06/10 18:54:17;;;;;;;13.18;6.65;;;;;;;;;;10357792;28;20014;-76
2023/06/10 18:59:22;;;;;;;8.18;4.47;;;;;;;;;;10367167;28;20037;-73
2023/06/10 19:04:45;;;;;;;5.50;3.60;;;;;;;;;;10378391;28;20120;-78
2023/06/10 19:09:45;;;;;;;10.50;5.05;;;;;;;;;;10370859;28;20535;-72
2023/06/10 19:14:45;;;;;;;6.60;4.10;;;;;;;;;;10355990;28;20022;-77
2023/06/10 19:19:49;;;;;;;11.82;5.45;;;;;;;;;;10352084;28;20371;-79
2023/06/10 19:25:06;;;;;;;10.93;5.07;;;;;;;;;;10340832;28;20026;-82
2023/06/10 19:30:06;;;;;;;9.98;4.68;;;;;;;;;;10361806;28;20021;-84
2023/06/10 19:35:07;;;;;;;7.28;4.20;;;;;;;;;;10351688;28;20025;-83
2023/06/10 19:40:08;;;;;;;7.55;4.72;;;;;;;;;;10357527;28;20366;-82
2023/06/10 19:45:08;;;;;;;8.52;5.07;;;;;;;;;;10342306;28;20033;-83
2023/06/10 19:50:10;;;;;;;7.03;5.05;;;;;;;;;;10354109;28;20022;-83
2023/06/10 19:55:21;;;;;;;6.43;4.63;;;;;;;;;;10352091;28;20076;-87
2023/06/10 20:00:22;;;;;;;8.65;5.30;;;;;;;;;;10353463;28;20042;-82
2023/06/10 20:05:22;;;;;;;7.82;4.70;;;;;;;;;;10350848;28;20445;-82
2023/06/10 20:10:24;;;;;;;9.00;5.07;;;;;;;;;;10347217;28;21405;-82
2023/06/10 20:15:24;;;;;;;15.50;4.63;;;;;;;;;;10349890;28;20060;-83
2023/06/10 20:20:24;;;;;;;10.80;4.97;;;;;;;;;;10379276;28;20057;-83
2023/06/10 20:25:25;;;;;;;8.20;4.97;;;;;;;;;;10357413;28;20037;-82
2023/06/10 20:30:25;;;;;;;31.45;23.13;;;;;;;;;;10358892;28;20116;-83
2023/06/10 20:35:26;;;;;;;27.30;19.17;;;;;;;;;;10356238;28;20061;-85
2023/06/10 20:40:29;;;;;;;20.53;12.40;;;;;;;;;;10362732;28;20026;-82
2023/06/10 20:45:30;;;;;;;24.13;12.60;;;;;;;;;;10349667;28;20088;-80
2023/06/10 20:50:31;;;;;;;19.92;8.65;;;;;;;;;;10349410;28;20673;-80
2023/06/10 20:55:32;;;;;;;13.07;6.47;;;;;;;;;;10349631;28;20050;-81
2023/06/10 21:00:32;;;;;;;14.07;5.88;;;;;;;;;;10357442;28;20054;-83
2023/06/10 21:05:33;;;;;;;12.40;5.40;;;;;;;;;;10352571;28;20080;-85
2023/06/10 21:10:35;;;;;;;7.47;5.38;;;;;;;;;;10344775;28;20704;-83
2023/06/10 21:15:35;;;;;;;10.00;5.40;;;;;;;;;;10355608;28;20025;-80
2023/06/10 21:20:36;;;;;;;19.50;6.00;;;;;;;;;;10337646;28;20734;-82
2023/06/10 21:25:36;;;;;;;14.25;6.03;;;;;;;;;;10361765;28;20556;-83
2023/06/10 21:30:36;;;;;;;12.65;7.30;;;;;;;;;;10352596;28;20042;-80
2023/06/10 21:35:37;;;;;;;21.77;7.57;;;;;;;;;;10362552;28;20018;-82
2023/06/10 21:40:37;;;;;;;15.73;7.60;;;;;;;;;;10330182;28;20022;-83
2023/06/10 21:45:37;;;;;;;16.50;7.43;;;;;;;;;;10352503;28;20025;-79
2023/06/10 21:50:37;;;;;;;11.52;5.97;;;;;;;;;;10358300;28;20022;-79
2023/06/10 21:55:41;;;;;;;17.60;7.05;;;;;;;;;;10376467;28;20410;-81
2023/06/10 22:00:42;;;;;;;10.70;5.85;;;;;;;;;;10367358;28;20045;-85
2023/06/10 22:05:42;;;;;;;20.42;7.13;;;;;;;;;;10356992;28;20125;-86
2023/06/10 22:10:43;;;;;;;11.52;5.82;;;;;;;;;;10359852;28;20088;-82
2023/06/10 22:15:44;;;;;;;14.90;6.43;;;;;;;;;;10355139;28;20502;-81
2023/06/10 22:20:48;;;;;;;10.70;5.95;;;;;;;;;;10355783;28;20033;-82
2023/06/10 22:25:49;;;;;;;7.65;5.53;;;;;;;;;;10353482;28;20028;-85
2023/06/10 22:30:53;;;;;;;9.23;5.03;;;;;;;;;;10358624;28;20075;-86
2023/06/10 22:35:56;;;;;;;12.18;5.53;;;;;;;;;;10353987;28;20014;-84
2023/06/10 22:40:57;;;;;;;10.07;4.68;;;;;;;;;;10365636;28;20473;-83
2023/06/10 22:45:57;;;;;;;11.63;4.75;;;;;;;;;;10356818;28;20160;-81
2023/06/10 22:50:58;;;;;;;7.43;4.95;;;;;;;;;;10367655;28;20032;-84
2023/06/10 22:55:58;;;;;;;10.48;4.45;;;;;;;;;;10364604;28;20036;-76
2023/06/10 23:00:58;;;;;;;6.07;4.93;;;;;;;;;;10362629;28;20426;-77
2023/06/10 23:05:58;;;;;;;7.43;4.97;;;;;;;;;;10377307;28;20121;-75
2023/06/10 23:11:09;;;;;;;10.27;5.45;;;;;;;;;;10357238;28;20034;-82
2023/06/10 23:16:09;;;;;;;8.07;4.57;;;;;;;;;;10366547;28;20163;-82
2023/06/10 23:21:10;;;;;;;9.13;4.97;;;;;;;;;;10363206;28;20034;-77
2023/06/10 23:26:10;;;;;;;12.60;5.55;;;;;;;;;;10361325;28;20022;-77
2023/06/10 23:31:10;;;;;;;7.43;4.17;;;;;;;;;;10353929;28;20030;-78
2023/06/10 23:36:12;;;;;;;6.60;4.60;;;;;;;;;;10364856;28;20265;-81
2023/06/10 23:41:12;;;;;;;8.13;4.10;;;;;;;;;;10346620;28;20022;-76
2023/06/10 23:46:13;;;;;;;11.82;4.97;;;;;;;;;;10363235;28;20108;-75
2023/06/10 23:51:14;;;;;;;10.65;4.80;;;;;;;;;;10362313;28;20021;-83
2023/06/10 23:56:15;;;;;;;9.25;4.80;;;;;;;;;;10362160;28;20047;-83
